sensor_id;sensor_type;location;lat;lon;timestamp;temperature;humidity
50989;DHT22;37008;52.210;21.112;2022-09-02T00:00:56;7.50;99.90
50989;DHT22;37008;52.210;21.112;2022-09-02T00:03:28;7.40;99.90
50989;DHT22;37008;52.210;21.112;2022-09-02T00:05:55;7.30;99.90
50989;DHT22;37008;52.210;21.112;2022-09-02T00:08:21;7.30;99.90
50989;DHT22;37008;52.210;21.112;2022-09-02T00:10:46;7.20;99.90
50989;DHT22;37008;52.210;21.112;2022-09-02T00:13:14;7.20;99.90
50989;DHT22;37008;52.210;21.112;2022-09-02T00:15:42;7.10;99.90
50989;DHT22;37008;52.210;21.112;2022-09-02T00:18:08;7.10;99.90
50989;DHT22;37008;52.210;21.112;2022-09-02T00:20:37;7.00;99.90
50989;DHT22;37008;52.210;21.112;2022-09-02T00:23:03;7.00;99.90
50989;DHT22;37008;52.210;21.112;2022-09-02T00:25:30;7.00;99.90
50989;DHT22;37008;52.210;21.112;2022-09-02T00:27:56;7.00;99.90
50989;DHT22;37008;52.210;21.112;2022-09-02T00:30:22;6.90;99.90
50989;DHT22;37008;52.210;21.112;2022-09-02T00:32:48;6.90;99.90
50989;DHT22;37008;52.210;21.112;2022-09-02T00:35:13;6.80;99.90
50989;DHT22;37008;52.210;21.112;2022-09-02T00:37:39;6.80;99.90
50989;DHT22;37008;52.210;21.112;2022-09-02T00:40:06;6.80;99.90
50989;DHT22;37008;52.210;21.112;2022-09-02T00:42:33;6.70;99.90
50989;DHT22;37008;52.210;21.112;2022-09-02T00:44:59;6.70;99.90
50989;DHT22;37008;52.210;21.112;2022-09-02T00:47:27;6.70;99.90
50989;DHT22;37008;52.210;21.112;2022-09-02T00:49:54;6.60;99.90
50989;DHT22;37008;52.210;21.112;2022-09-02T00:54:56;6.70;99.90
50989;DHT22;37008;52.210;21.112;2022-09-02T00:57:25;6.60;99.90
50989;DHT22;37008;52.210;21.112;2022-09-02T01:02:33;6.60;99.90
50989;DHT22;37008;52.210;21.112;2022-09-02T01:04:59;6.50;99.90
50989;DHT22;37008;52.210;21.112;2022-09-02T01:07:28;6.50;99.90
50989;DHT22;37008;52.210;21.112;2022-09-02T01:09:55;6.40;99.90
50989;DHT22;37008;52.210;21.112;2022-09-02T01:12:23;6.40;99.90
50989;DHT22;37008;52.210;21.112;2022-09-02T01:14:48;6.50;99.90
50989;DHT22;37008;52.210;21.112;2022-09-02T01:17:14;6.40;99.90
50989;DHT22;37008;52.210;21.112;2022-09-02T01:19:46;6.50;99.90
50989;DHT22;37008;52.210;21.112;2022-09-02T01:22:21;6.50;99.90
50989;DHT22;37008;52.210;21.112;2022-09-02T01:24:47;6.50;99.90
50989;DHT22;37008;52.210;21.112;2022-09-02T01:27:15;6.50;99.90
50989;DHT22;37008;52.210;21.112;2022-09-02T01:29:41;6.50;99.90
50989;DHT22;37008;52.210;21.112;2022-09-02T01:32:07;6.50;99.90
50989;DHT22;37008;52.210;21.112;2022-09-02T01:34:32;6.50;99.90
50989;DHT22;37008;52.210;21.112;2022-09-02T01:36:58;6.40;99.90
50989;DHT22;37008;52.210;21.112;2022-09-02T01:39:24;6.30;99.90
50989;DHT22;37008;52.210;21.112;2022-09-02T01:41:51;6.30;99.90
50989;DHT22;37008;52.210;21.112;2022-09-02T01:44:17;6.30;99.90
50989;DHT22;37008;52.210;21.112;2022-09-02T01:46:43;6.30;99.90
50989;DHT22;37008;52.210;21.112;2022-09-02T01:49:09;6.30;99.90
50989;DHT22;37008;52.210;21.112;2022-09-02T01:51:35;6.30;99.90
50989;DHT22;37008;52.210;21.112;2022-09-02T01:54:00;6.30;99.90
50989;DHT22;37008;52.210;21.112;2022-09-02T01:56:26;6.30;99.90
50989;DHT22;37008;52.210;21.112;2022-09-02T01:58:51;6.30;99.90
50989;DHT22;37008;52.210;21.112;2022-09-02T02:01:17;6.30;99.90
50989;DHT22;37008;52.210;21.112;2022-09-02T02:03:43;6.30;99.90
50989;DHT22;37008;52.210;21.112;2022-09-02T02:06:10;6.20;99.90
50989;DHT22;37008;52.210;21.112;2022-09-02T02:08:37;6.20;99.90
50989;DHT22;37008;52.210;21.112;2022-09-02T02:11:03;6.20;99.90
50989;DHT22;37008;52.210;21.112;2022-09-02T02:13:29;6.20;99.90
50989;DHT22;37008;52.210;21.112;2022-09-02T02:15:55;6.20;99.90
50989;DHT22;37008;52.210;21.112;2022-09-02T02:18:20;6.20;99.90
50989;DHT22;37008;52.210;21.112;2022-09-02T02:20:46;6.20;99.90
50989;DHT22;37008;52.210;21.112;2022-09-02T02:23:12;6.20;99.90
50989;DHT22;37008;52.210;21.112;2022-09-02T02:25:37;6.10;99.90
50989;DHT22;37008;52.210;21.112;2022-09-02T02:28:08;6.10;99.90
50989;DHT22;37008;52.210;21.112;2022-09-02T02:30:34;6.10;99.90
50989;DHT22;37008;52.210;21.112;2022-09-02T02:33:00;5.90;99.90
50989;DHT22;37008;52.210;21.112;2022-09-02T02:35:25;6.00;99.90
50989;DHT22;37008;52.210;21.112;2022-09-02T02:37:52;5.90;99.90
50989;DHT22;37008;52.210;21.112;2022-09-02T02:40:20;5.90;99.90
50989;DHT22;37008;52.210;21.112;2022-09-02T02:42:46;5.90;99.90
50989;DHT22;37008;52.210;21.112;2022-09-02T02:45:12;5.90;99.90
50989;DHT22;37008;52.210;21.112;2022-09-02T02:47:39;5.90;99.90
50989;DHT22;37008;52.210;21.112;2022-09-02T02:50:09;5.80;99.90
50989;DHT22;37008;52.210;21.112;2022-09-02T02:52:35;5.80;99.90
50989;DHT22;37008;52.210;21.112;2022-09-02T02:55:01;5.70;99.90
50989;DHT22;37008;52.210;21.112;2022-09-02T02:57:26;5.80;99.90
50989;DHT22;37008;52.210;21.112;2022-09-02T02:59:52;5.70;99.90
50989;DHT22;37008;52.210;21.112;2022-09-02T03:02:18;5.70;99.90
50989;DHT22;37008;52.210;21.112;2022-09-02T03:04:43;5.70;99.90
50989;DHT22;37008;52.210;21.112;2022-09-02T03:07:09;5.70;99.90
50989;DHT22;37008;52.210;21.112;2022-09-02T03:09:35;5.70;99.90
50989;DHT22;37008;52.210;21.112;2022-09-02T03:12:01;5.70;99.90
50989;DHT22;37008;52.210;21.112;2022-09-02T03:14:26;5.70;99.90
50989;DHT22;37008;52.210;21.112;2022-09-02T03:16:52;5.60;99.90
50989;DHT22;37008;52.210;21.112;2022-09-02T03:19:18;5.70;99.90
50989;DHT22;37008;52.210;21.112;2022-09-02T03:21:43;5.60;99.90
50989;DHT22;37008;52.210;21.112;2022-09-02T03:24:10;5.60;99.90
50989;DHT22;37008;52.210;21.112;2022-09-02T03:26:36;5.60;99.90
50989;DHT22;37008;52.210;21.112;2022-09-02T03:29:02;5.50;99.90
50989;DHT22;37008;52.210;21.112;2022-09-02T03:31:28;5.50;99.90
50989;DHT22;37008;52.210;21.112;2022-09-02T03:33:53;5.50;99.90
50989;DHT22;37008;52.210;21.112;2022-09-02T03:36:25;5.40;99.90
50989;DHT22;37008;52.210;21.112;2022-09-02T03:38:51;5.40;99.90
50989;DHT22;37008;52.210;21.112;2022-09-02T03:41:17;5.40;99.90
50989;DHT22;37008;52.210;21.112;2022-09-02T03:43:43;5.40;99.90
50989;DHT22;37008;52.210;21.112;2022-09-02T03:46:09;5.40;99.90
50989;DHT22;37008;52.210;21.112;2022-09-02T03:48:35;5.40;99.90
50989;DHT22;37008;52.210;21.112;2022-09-02T03:51:00;5.40;99.90
50989;DHT22;37008;52.210;21.112;2022-09-02T03:53:27;5.30;99.90
50989;DHT22;37008;52.210;21.112;2022-09-02T03:55:53;5.20;99.90
50989;DHT22;37008;52.210;21.112;2022-09-02T03:58:20;5.30;99.90
50989;DHT22;37008;52.210;21.112;2022-09-02T04:00:53;5.30;99.90
50989;DHT22;37008;52.210;21.112;2022-09-02T04:03:19;5.30;99.90
50989;DHT22;37008;52.210;21.112;2022-09-02T04:05:47;5.30;99.90
50989;DHT22;37008;52.210;21.112;2022-09-02T04:08:13;5.30;99.90
50989;DHT22;37008;52.210;21.112;2022-09-02T04:10:39;5.30;99.90
50989;DHT22;37008;52.210;21.112;2022-09-02T04:13:05;5.40;99.90
50989;DHT22;37008;52.210;21.112;2022-09-02T04:15:30;5.50;99.90
50989;DHT22;37008;52.210;21.112;2022-09-02T04:17:56;5.60;99.90
50989;DHT22;37008;52.210;21.112;2022-09-02T04:20:21;5.60;99.90
50989;DHT22;37008;52.210;21.112;2022-09-02T04:22:47;5.70;99.90
50989;DHT22;37008;52.210;21.112;2022-09-02T04:25:13;5.70;99.90
50989;DHT22;37008;52.210;21.112;2022-09-02T04:27:39;5.80;99.90
50989;DHT22;37008;52.210;21.112;2022-09-02T04:30:06;5.90;99.90
50989;DHT22;37008;52.210;21.112;2022-09-02T04:32:32;6.00;99.90
50989;DHT22;37008;52.210;21.112;2022-09-02T04:34:58;6.00;99.90
50989;DHT22;37008;52.210;21.112;2022-09-02T04:37:24;6.20;99.90
50989;DHT22;37008;52.210;21.112;2022-09-02T04:39:49;6.20;99.90
50989;DHT22;37008;52.210;21.112;2022-09-02T04:42:15;6.30;99.90
50989;DHT22;37008;52.210;21.112;2022-09-02T04:44:40;6.30;99.90
50989;DHT22;37008;52.210;21.112;2022-09-02T04:47:06;6.40;99.90
50989;DHT22;37008;52.210;21.112;2022-09-02T04:49:32;6.40;99.90
50989;DHT22;37008;52.210;21.112;2022-09-02T04:51:58;6.40;99.90
50989;DHT22;37008;52.210;21.112;2022-09-02T04:54:24;6.50;99.90
50989;DHT22;37008;52.210;21.112;2022-09-02T04:56:50;6.50;99.90
50989;DHT22;37008;52.210;21.112;2022-09-02T04:59:16;6.60;99.90
50989;DHT22;37008;52.210;21.112;2022-09-02T05:01:42;6.60;99.90
50989;DHT22;37008;52.210;21.112;2022-09-02T05:04:08;6.70;99.90
50989;DHT22;37008;52.210;21.112;2022-09-02T05:06:35;6.80;99.90
50989;DHT22;37008;52.210;21.112;2022-09-02T05:09:02;6.90;99.90
50989;DHT22;37008;52.210;21.112;2022-09-02T05:11:30;7.00;99.90
50989;DHT22;37008;52.210;21.112;2022-09-02T05:13:59;7.10;99.90
50989;DHT22;37008;52.210;21.112;2022-09-02T05:16:31;7.20;99.90
50989;DHT22;37008;52.210;21.112;2022-09-02T05:18:59;7.20;99.90
50989;DHT22;37008;52.210;21.112;2022-09-02T05:21:25;7.30;99.90
50989;DHT22;37008;52.210;21.112;2022-09-02T05:23:51;7.40;99.90
50989;DHT22;37008;52.210;21.112;2022-09-02T05:26:18;7.50;99.90
50989;DHT22;37008;52.210;21.112;2022-09-02T05:28:43;7.60;99.90
50989;DHT22;37008;52.210;21.112;2022-09-02T05:31:11;7.70;99.90
50989;DHT22;37008;52.210;21.112;2022-09-02T05:33:38;7.80;99.90
50989;DHT22;37008;52.210;21.112;2022-09-02T05:36:11;7.90;99.90
50989;DHT22;37008;52.210;21.112;2022-09-02T05:38:38;8.00;99.90
50989;DHT22;37008;52.210;21.112;2022-09-02T05:41:09;8.10;99.90
50989;DHT22;37008;52.210;21.112;2022-09-02T05:43:39;8.30;99.90
50989;DHT22;37008;52.210;21.112;2022-09-02T05:46:06;8.40;99.90
50989;DHT22;37008;52.210;21.112;2022-09-02T05:48:33;8.60;99.90
50989;DHT22;37008;52.210;21.112;2022-09-02T05:52:01;8.70;99.90
50989;DHT22;37008;52.210;21.112;2022-09-02T05:54:31;8.90;99.90
50989;DHT22;37008;52.210;21.112;2022-09-02T05:57:02;9.00;99.90
50989;DHT22;37008;52.210;21.112;2022-09-02T05:59:30;9.10;99.90
50989;DHT22;37008;52.210;21.112;2022-09-02T06:01:56;9.30;99.90
50989;DHT22;37008;52.210;21.112;2022-09-02T06:04:23;9.40;99.90
50989;DHT22;37008;52.210;21.112;2022-09-02T06:06:50;9.60;99.90
50989;DHT22;37008;52.210;21.112;2022-09-02T06:09:18;9.70;99.90
50989;DHT22;37008;52.210;21.112;2022-09-02T06:11:45;9.90;99.90
50989;DHT22;37008;52.210;21.112;2022-09-02T06:14:15;10.00;99.90
50989;DHT22;37008;52.210;21.112;2022-09-02T06:16:42;10.20;99.90
50989;DHT22;37008;52.210;21.112;2022-09-02T06:19:08;10.30;99.90
50989;DHT22;37008;52.210;21.112;2022-09-02T06:21:35;10.40;99.90
50989;DHT22;37008;52.210;21.112;2022-09-02T06:24:04;10.50;99.90
50989;DHT22;37008;52.210;21.112;2022-09-02T06:26:30;10.70;99.90
50989;DHT22;37008;52.210;21.112;2022-09-02T06:28:56;10.80;99.90
50989;DHT22;37008;52.210;21.112;2022-09-02T06:31:22;10.90;99.90
50989;DHT22;37008;52.210;21.112;2022-09-02T06:33:54;11.10;99.70
50989;DHT22;37008;52.210;21.112;2022-09-02T06:36:20;11.20;99.40
50989;DHT22;37008;52.210;21.112;2022-09-02T06:38:48;11.30;99.00
50989;DHT22;37008;52.210;21.112;2022-09-02T06:41:20;11.50;98.00
50989;DHT22;37008;52.210;21.112;2022-09-02T06:43:48;11.60;96.90
50989;DHT22;37008;52.210;21.112;2022-09-02T06:46:20;11.60;96.00
50989;DHT22;37008;52.210;21.112;2022-09-02T06:48:46;11.70;95.90
50989;DHT22;37008;52.210;21.112;2022-09-02T06:51:23;11.80;95.30
50989;DHT22;37008;52.210;21.112;2022-09-02T06:53:49;11.90;95.00
50989;DHT22;37008;52.210;21.112;2022-09-02T06:56:16;12.10;94.70
50989;DHT22;37008;52.210;21.112;2022-09-02T06:58:42;12.20;94.30
50989;DHT22;37008;52.210;21.112;2022-09-02T07:01:08;12.30;93.60
50989;DHT22;37008;52.210;21.112;2022-09-02T07:03:33;12.30;93.20
50989;DHT22;37008;52.210;21.112;2022-09-02T07:06:18;12.50;93.00
50989;DHT22;37008;52.210;21.112;2022-09-02T07:08:44;12.50;91.90
50989;DHT22;37008;52.210;21.112;2022-09-02T07:11:19;12.60;91.40
50989;DHT22;37008;52.210;21.112;2022-09-02T07:13:45;12.70;91.20
50989;DHT22;37008;52.210;21.112;2022-09-02T07:16:11;12.80;90.60
50989;DHT22;37008;52.210;21.112;2022-09-02T07:18:37;12.90;90.40
50989;DHT22;37008;52.210;21.112;2022-09-02T07:21:03;12.90;89.60
50989;DHT22;37008;52.210;21.112;2022-09-02T07:23:29;13.00;88.50
50989;DHT22;37008;52.210;21.112;2022-09-02T07:25:57;13.10;87.40
50989;DHT22;37008;52.210;21.112;2022-09-02T07:28:22;13.10;86.80
50989;DHT22;37008;52.210;21.112;2022-09-02T07:30:48;13.20;87.00
50989;DHT22;37008;52.210;21.112;2022-09-02T07:33:14;13.30;87.00
50989;DHT22;37008;52.210;21.112;2022-09-02T07:35:43;13.30;86.20
50989;DHT22;37008;52.210;21.112;2022-09-02T07:38:10;13.40;85.50
50989;DHT22;37008;52.210;21.112;2022-09-02T07:40:37;13.50;85.10
50989;DHT22;37008;52.210;21.112;2022-09-02T07:43:06;13.50;84.60
50989;DHT22;37008;52.210;21.112;2022-09-02T07:45:32;13.60;84.00
50989;DHT22;37008;52.210;21.112;2022-09-02T07:47:58;13.70;83.60
50989;DHT22;37008;52.210;21.112;2022-09-02T07:50:25;13.80;83.10
50989;DHT22;37008;52.210;21.112;2022-09-02T07:52:57;13.90;82.50
50989;DHT22;37008;52.210;21.112;2022-09-02T07:55:23;14.00;81.20
50989;DHT22;37008;52.210;21.112;2022-09-02T07:57:50;14.10;80.90
50989;DHT22;37008;52.210;21.112;2022-09-02T08:00:16;14.20;80.40
50989;DHT22;37008;52.210;21.112;2022-09-02T08:02:44;14.20;78.20
50989;DHT22;37008;52.210;21.112;2022-09-02T08:05:10;14.30;77.60
50989;DHT22;37008;52.210;21.112;2022-09-02T08:07:36;14.40;76.50
50989;DHT22;37008;52.210;21.112;2022-09-02T08:10:04;14.40;76.00
50989;DHT22;37008;52.210;21.112;2022-09-02T08:12:30;14.50;75.60
50989;DHT22;37008;52.210;21.112;2022-09-02T08:14:56;14.50;75.00
50989;DHT22;37008;52.210;21.112;2022-09-02T08:17:23;14.60;74.80
50989;DHT22;37008;52.210;21.112;2022-09-02T08:19:48;14.70;73.80
50989;DHT22;37008;52.210;21.112;2022-09-02T08:22:14;14.80;73.70
50989;DHT22;37008;52.210;21.112;2022-09-02T08:24:39;14.90;72.40
50989;DHT22;37008;52.210;21.112;2022-09-02T08:27:05;14.90;71.60
50989;DHT22;37008;52.210;21.112;2022-09-02T08:29:31;15.00;71.00
50989;DHT22;37008;52.210;21.112;2022-09-02T08:31:56;15.10;71.30
50989;DHT22;37008;52.210;21.112;2022-09-02T08:34:22;15.20;70.30
50989;DHT22;37008;52.210;21.112;2022-09-02T08:36:48;15.20;69.70
50989;DHT22;37008;52.210;21.112;2022-09-02T08:39:13;15.30;69.00
50989;DHT22;37008;52.210;21.112;2022-09-02T08:44:40;15.30;68.10
50989;DHT22;37008;52.210;21.112;2022-09-02T08:47:14;15.30;67.40
50989;DHT22;37008;52.210;21.112;2022-09-02T08:49:52;15.40;65.60
50989;DHT22;37008;52.210;21.112;2022-09-02T08:52:29;15.60;65.30
50989;DHT22;37008;52.210;21.112;2022-09-02T08:54:57;15.60;64.80
50989;DHT22;37008;52.210;21.112;2022-09-02T08:57:24;15.60;64.60
50989;DHT22;37008;52.210;21.112;2022-09-02T08:59:52;15.70;64.70
50989;DHT22;37008;52.210;21.112;2022-09-02T09:02:21;15.80;63.40
50989;DHT22;37008;52.210;21.112;2022-09-02T09:13:58;16.10;61.30
50989;DHT22;37008;52.210;21.112;2022-09-02T09:16:40;16.10;60.70
50989;DHT22;37008;52.210;21.112;2022-09-02T09:21:46;16.20;59.20
50989;DHT22;37008;52.210;21.112;2022-09-02T09:26:40;16.30;56.50
50989;DHT22;37008;52.210;21.112;2022-09-02T09:29:06;16.30;56.40
50989;DHT22;37008;52.210;21.112;2022-09-02T09:31:34;16.30;56.20
50989;DHT22;37008;52.210;21.112;2022-09-02T09:34:07;16.30;55.70
50989;DHT22;37008;52.210;21.112;2022-09-02T09:39:28;16.40;55.60
50989;DHT22;37008;52.210;21.112;2022-09-02T09:41:59;16.40;55.10
50989;DHT22;37008;52.210;21.112;2022-09-02T09:44:38;16.50;55.10
50989;DHT22;37008;52.210;21.112;2022-09-02T09:47:08;16.50;55.20
50989;DHT22;37008;52.210;21.112;2022-09-02T09:49:36;16.70;55.20
50989;DHT22;37008;52.210;21.112;2022-09-02T09:52:02;16.70;54.30
50989;DHT22;37008;52.210;21.112;2022-09-02T09:54:29;16.70;53.40
50989;DHT22;37008;52.210;21.112;2022-09-02T09:56:55;16.70;53.00
50989;DHT22;37008;52.210;21.112;2022-09-02T09:59:40;16.90;52.50
50989;DHT22;37008;52.210;21.112;2022-09-02T10:02:33;16.90;51.30
50989;DHT22;37008;52.210;21.112;2022-09-02T10:05:16;16.90;51.00
50989;DHT22;37008;52.210;21.112;2022-09-02T10:07:44;17.00;51.70
50989;DHT22;37008;52.210;21.112;2022-09-02T10:10:23;17.00;51.60
50989;DHT22;37008;52.210;21.112;2022-09-02T10:12:52;17.10;51.60
50989;DHT22;37008;52.210;21.112;2022-09-02T10:15:26;17.10;50.60
50989;DHT22;37008;52.210;21.112;2022-09-02T10:18:12;17.20;51.30
50989;DHT22;37008;52.210;21.112;2022-09-02T10:21:07;17.20;50.80
50989;DHT22;37008;52.210;21.112;2022-09-02T10:26:38;17.20;49.30
50989;DHT22;37008;52.210;21.112;2022-09-02T10:31:40;17.20;48.40
50989;DHT22;37008;52.210;21.112;2022-09-02T10:37:22;17.40;48.60
50989;DHT22;37008;52.210;21.112;2022-09-02T10:47:36;17.80;49.20
50989;DHT22;37008;52.210;21.112;2022-09-02T10:52:59;18.00;47.20
50989;DHT22;37008;52.210;21.112;2022-09-02T10:55:50;18.10;48.20
50989;DHT22;37008;52.210;21.112;2022-09-02T11:00:53;18.20;47.40
50989;DHT22;37008;52.210;21.112;2022-09-02T11:06:06;18.10;45.80
50989;DHT22;37008;52.210;21.112;2022-09-02T11:08:48;18.10;45.90
50989;DHT22;37008;52.210;21.112;2022-09-02T11:11:24;18.10;46.90
50989;DHT22;37008;52.210;21.112;2022-09-02T11:13:53;18.10;45.80
50989;DHT22;37008;52.210;21.112;2022-09-02T11:16:39;18.20;45.30
50989;DHT22;37008;52.210;21.112;2022-09-02T11:19:17;18.20;46.50
50989;DHT22;37008;52.210;21.112;2022-09-02T11:24:41;18.20;46.30
50989;DHT22;37008;52.210;21.112;2022-09-02T11:27:28;18.20;45.90
50989;DHT22;37008;52.210;21.112;2022-09-02T11:32:38;18.30;46.50
50989;DHT22;37008;52.210;21.112;2022-09-02T11:35:09;18.40;46.40
50989;DHT22;37008;52.210;21.112;2022-09-02T11:37:42;18.30;46.00
50989;DHT22;37008;52.210;21.112;2022-09-02T11:40:32;18.10;45.30
50989;DHT22;37008;52.210;21.112;2022-09-02T11:53:44;18.60;45.90
50989;DHT22;37008;52.210;21.112;2022-09-02T11:58:45;18.70;45.30
50989;DHT22;37008;52.210;21.112;2022-09-02T12:06:21;18.70;44.50
50989;DHT22;37008;52.210;21.112;2022-09-02T12:11:41;18.90;44.40
50989;DHT22;37008;52.210;21.112;2022-09-02T12:17:07;19.20;45.70
50989;DHT22;37008;52.210;21.112;2022-09-02T12:19:43;19.30;45.20
50989;DHT22;37008;52.210;21.112;2022-09-02T12:24:52;19.50;43.50
50989;DHT22;37008;52.210;21.112;2022-09-02T12:29:51;19.40;42.10
50989;DHT22;37008;52.210;21.112;2022-09-02T12:35:29;19.40;43.10
50989;DHT22;37008;52.210;21.112;2022-09-02T12:40:40;19.50;43.10
50989;DHT22;37008;52.210;21.112;2022-09-02T12:43:27;19.50;42.90
50989;DHT22;37008;52.210;21.112;2022-09-02T12:46:06;19.50;43.10
50989;DHT22;37008;52.210;21.112;2022-09-02T12:48:44;19.50;44.40
50989;DHT22;37008;52.210;21.112;2022-09-02T12:54:20;19.40;44.50
50989;DHT22;37008;52.210;21.112;2022-09-02T12:56:49;19.20;44.90
50989;DHT22;37008;52.210;21.112;2022-09-02T12:59:45;19.00;45.50
50989;DHT22;37008;52.210;21.112;2022-09-02T13:02:30;18.80;47.10
50989;DHT22;37008;52.210;21.112;2022-09-02T13:05:17;18.70;47.90
50989;DHT22;37008;52.210;21.112;2022-09-02T13:20:25;19.50;45.40
50989;DHT22;37008;52.210;21.112;2022-09-02T13:26:00;20.00;43.90
50989;DHT22;37008;52.210;21.112;2022-09-02T13:31:23;20.10;42.70
50989;DHT22;37008;52.210;21.112;2022-09-02T13:34:05;20.20;43.30
50989;DHT22;37008;52.210;21.112;2022-09-02T13:36:35;20.30;42.80
50989;DHT22;37008;52.210;21.112;2022-09-02T13:39:17;20.30;41.90
50989;DHT22;37008;52.210;21.112;2022-09-02T13:41:43;20.30;42.40
50989;DHT22;37008;52.210;21.112;2022-09-02T13:44:20;20.30;41.20
50989;DHT22;37008;52.210;21.112;2022-09-02T13:46:52;20.20;41.70
50989;DHT22;37008;52.210;21.112;2022-09-02T13:49:24;20.30;41.60
50989;DHT22;37008;52.210;21.112;2022-09-02T13:51:52;20.20;41.40
50989;DHT22;37008;52.210;21.112;2022-09-02T13:54:32;20.30;42.00
50989;DHT22;37008;52.210;21.112;2022-09-02T13:57:00;20.40;43.70
50989;DHT22;37008;52.210;21.112;2022-09-02T13:59:53;20.50;44.50
50989;DHT22;37008;52.210;21.112;2022-09-02T14:02:22;20.80;44.50
50989;DHT22;37008;52.210;21.112;2022-09-02T14:04:53;21.00;44.60
50989;DHT22;37008;52.210;21.112;2022-09-02T14:07:45;21.30;44.50
50989;DHT22;37008;52.210;21.112;2022-09-02T14:10:12;21.50;43.10
50989;DHT22;37008;52.210;21.112;2022-09-02T14:12:39;21.70;42.60
50989;DHT22;37008;52.210;21.112;2022-09-02T14:15:08;21.90;42.50
50989;DHT22;37008;52.210;21.112;2022-09-02T14:17:35;22.00;41.80
50989;DHT22;37008;52.210;21.112;2022-09-02T14:22:40;21.50;41.00
50989;DHT22;37008;52.210;21.112;2022-09-02T14:25:11;21.10;40.80
50989;DHT22;37008;52.210;21.112;2022-09-02T14:27:39;20.70;41.50
50989;DHT22;37008;52.210;21.112;2022-09-02T14:30:05;20.50;42.60
50989;DHT22;37008;52.210;21.112;2022-09-02T14:32:34;20.20;42.60
50989;DHT22;37008;52.210;21.112;2022-09-02T14:37:52;19.70;44.90
50989;DHT22;37008;52.210;21.112;2022-09-02T14:40:40;19.50;46.80
50989;DHT22;37008;52.210;21.112;2022-09-02T14:43:13;19.30;48.00
50989;DHT22;37008;52.210;21.112;2022-09-02T14:45:44;19.00;48.40
50989;DHT22;37008;52.210;21.112;2022-09-02T14:48:21;18.80;50.20
50989;DHT22;37008;52.210;21.112;2022-09-02T14:50:48;18.80;53.10
50989;DHT22;37008;52.210;21.112;2022-09-02T14:53:20;19.80;52.50
50989;DHT22;37008;52.210;21.112;2022-09-02T14:55:53;21.40;50.20
50989;DHT22;37008;52.210;21.112;2022-09-02T14:58:20;22.90;47.20
50989;DHT22;37008;52.210;21.112;2022-09-02T15:00:47;24.20;43.50
50989;DHT22;37008;52.210;21.112;2022-09-02T15:03:17;25.10;40.90
50989;DHT22;37008;52.210;21.112;2022-09-02T15:05:43;25.80;39.10
50989;DHT22;37008;52.210;21.112;2022-09-02T15:08:10;25.90;36.90
50989;DHT22;37008;52.210;21.112;2022-09-02T15:10:37;26.20;35.70
50989;DHT22;37008;52.210;21.112;2022-09-02T15:13:15;26.70;34.20
50989;DHT22;37008;52.210;21.112;2022-09-02T15:15:44;27.30;32.60
50989;DHT22;37008;52.210;21.112;2022-09-02T15:18:10;28.10;32.00
50989;DHT22;37008;52.210;21.112;2022-09-02T15:20:35;28.60;30.90
50989;DHT22;37008;52.210;21.112;2022-09-02T15:23:01;28.90;30.60
50989;DHT22;37008;52.210;21.112;2022-09-02T15:25:28;29.10;30.00
50989;DHT22;37008;52.210;21.112;2022-09-02T15:27:53;29.40;29.60
50989;DHT22;37008;52.210;21.112;2022-09-02T15:30:19;29.50;29.10
50989;DHT22;37008;52.210;21.112;2022-09-02T15:32:44;29.40;28.70
50989;DHT22;37008;52.210;21.112;2022-09-02T15:35:10;29.10;28.60
50989;DHT22;37008;52.210;21.112;2022-09-02T15:37:36;28.90;29.10
50989;DHT22;37008;52.210;21.112;2022-09-02T15:40:06;28.70;29.20
50989;DHT22;37008;52.210;21.112;2022-09-02T15:42:33;28.60;28.80
50989;DHT22;37008;52.210;21.112;2022-09-02T15:45:00;28.50;28.70
50989;DHT22;37008;52.210;21.112;2022-09-02T15:47:27;28.30;28.50
50989;DHT22;37008;52.210;21.112;2022-09-02T15:49:55;28.00;28.60
50989;DHT22;37008;52.210;21.112;2022-09-02T15:52:22;27.80;29.10
50989;DHT22;37008;52.210;21.112;2022-09-02T15:54:48;27.30;30.00
50989;DHT22;37008;52.210;21.112;2022-09-02T15:57:13;26.50;32.40
50989;DHT22;37008;52.210;21.112;2022-09-02T15:59:39;26.20;33.80
50989;DHT22;37008;52.210;21.112;2022-09-02T16:02:05;26.10;34.60
50989;DHT22;37008;52.210;21.112;2022-09-02T16:04:31;25.90;35.10
50989;DHT22;37008;52.210;21.112;2022-09-02T16:06:57;25.20;36.40
50989;DHT22;37008;52.210;21.112;2022-09-02T16:09:22;24.60;38.70
50989;DHT22;37008;52.210;21.112;2022-09-02T16:11:50;24.10;39.90
50989;DHT22;37008;52.210;21.112;2022-09-02T16:14:18;23.50;41.50
50989;DHT22;37008;52.210;21.112;2022-09-02T16:16:53;23.10;43.00
50989;DHT22;37008;52.210;21.112;2022-09-02T16:19:23;22.90;43.20
50989;DHT22;37008;52.210;21.112;2022-09-02T16:21:49;22.60;43.50
50989;DHT22;37008;52.210;21.112;2022-09-02T16:24:15;22.20;45.20
50989;DHT22;37008;52.210;21.112;2022-09-02T16:26:43;21.90;45.80
50989;DHT22;37008;52.210;21.112;2022-09-02T16:29:10;21.90;45.50
50989;DHT22;37008;52.210;21.112;2022-09-02T16:31:42;21.80;45.40
50989;DHT22;37008;52.210;21.112;2022-09-02T16:34:10;21.40;45.90
50989;DHT22;37008;52.210;21.112;2022-09-02T16:36:38;20.90;47.70
50989;DHT22;37008;52.210;21.112;2022-09-02T16:39:05;20.40;49.00
50989;DHT22;37008;52.210;21.112;2022-09-02T16:41:36;19.80;50.30
50989;DHT22;37008;52.210;21.112;2022-09-02T16:44:10;19.30;50.80
50989;DHT22;37008;52.210;21.112;2022-09-02T16:46:37;18.90;52.30
50989;DHT22;37008;52.210;21.112;2022-09-02T16:49:05;18.50;53.50
50989;DHT22;37008;52.210;21.112;2022-09-02T16:51:32;18.10;54.70
50989;DHT22;37008;52.210;21.112;2022-09-02T16:54:00;17.70;55.10
50989;DHT22;37008;52.210;21.112;2022-09-02T16:56:26;17.40;55.90
50989;DHT22;37008;52.210;21.112;2022-09-02T16:58:53;17.10;57.20
50989;DHT22;37008;52.210;21.112;2022-09-02T17:01:20;16.80;58.00
50989;DHT22;37008;52.210;21.112;2022-09-02T17:03:47;16.50;58.90
50989;DHT22;37008;52.210;21.112;2022-09-02T17:06:13;16.20;59.40
50989;DHT22;37008;52.210;21.112;2022-09-02T17:08:39;16.00;59.10
50989;DHT22;37008;52.210;21.112;2022-09-02T17:11:23;15.70;59.70
50989;DHT22;37008;52.210;21.112;2022-09-02T17:13:52;15.50;60.40
50989;DHT22;37008;52.210;21.112;2022-09-02T17:16:19;15.20;62.40
50989;DHT22;37008;52.210;21.112;2022-09-02T17:18:45;14.90;63.10
50989;DHT22;37008;52.210;21.112;2022-09-02T17:21:30;14.70;65.00
50989;DHT22;37008;52.210;21.112;2022-09-02T17:23:58;14.50;66.90
50989;DHT22;37008;52.210;21.112;2022-09-02T17:26:26;14.30;67.40
50989;DHT22;37008;52.210;21.112;2022-09-02T17:28:53;14.10;68.10
50989;DHT22;37008;52.210;21.112;2022-09-02T17:33:51;13.80;69.70